Latest Weather Observations for Forrest

IDW60801

Issued at 9:53 am WST Thursday 24 May 2018 (issued every 10 minutes, with the page automatically refreshed every 10 minutes)

About weather observations | Map of weather stations | Latest weather observations for WA | Other Formats
Station Details ID: 011052 Name: FORREST Lat: -30.85 Lon: 128.11 Height: 159.0 m
Data from the previous 72 hours. | See also: Recent months at Forrest
Date/Time
WST
Temp
°C
App
Temp
°C
Dew
Point
°C
Rel
Hum
%
Delta-T
°C
Wind Press
QNH
hPa
Press
MSL
hPa
Rain since
9am
mm
Dir  Spd
km/h
Gust
km/h
Spd
kts
Gust
kts
24/09:30am 16.9 12.8 6.4 50 5.2 NE 17 24 9 13 1024.7 1024.5 0.0
24/09:00am 15.5 11.2 7.0 57 4.2 NE 19 22 10 12 1025.3 1025.1 0.0
24/08:30am 13.1 8.5 6.7 65 3.1 NE 20 26 11 14 1025.4 1025.2 0.0
24/08:00am 11.0 7.1 6.9 76 2.0 NE 17 20 9 11 1025.6 1025.4 0.0
24/07:30am 8.6 5.0 6.6 87 0.9 ENE 15 19 8 10 1025.4 1025.2 0.0
24/07:00am 6.5 3.0 5.5 93 0.4 ENE 13 15 7 8 1025.1 1024.9 0.0
24/06:30am 5.2 1.5 4.5 95 0.3 ENE 13 15 7 8 1024.8 1024.6 0.0
24/06:00am 5.2 0.7 4.3 94 0.4 ENE 17 17 9 9 1024.4 1024.3 0.0
24/05:30am 5.2 1.1 4.3 94 0.4 ENE 15 17 8 9 1024.4 1024.3 0.0
24/05:00am 5.5 1.5 4.8 95 0.3 ENE 15 17 8 9 1024.3 1024.2 0.0
24/04:30am 5.6 1.6 4.9 95 0.3 ENE 15 17 8 9 1024.1 1024.0 0.0
24/04:00am 5.8 1.8 5.1 95 0.3 E 15 15 8 8 1024.0 1023.9 0.0
24/03:30am 6.1 2.5 5.2 94 0.4 E 13 15 7 8 1024.1 1024.0 0.0
24/03:00am 6.3 2.4 5.4 94 0.4 E 15 15 8 8 1024.0 1023.9 0.0
24/02:30am 7.1 3.4 6.2 94 0.4 E 15 19 8 10 1024.2 1024.1 0.0
24/02:00am 6.8 3.4 5.9 94 0.4 E 13 15 7 8 1024.3 1024.2 0.0
24/01:30am 7.1 3.7 6.0 93 0.5 E 13 13 7 7 1024.6 1024.4 0.0
24/01:00am 7.7 4.4 6.3 91 0.6 E 13 15 7 8 1024.6 1024.4 0.0
24/12:30am 8.4 5.2 7.0 91 0.7 E 13 15 7 8 1024.7 1024.5 0.0
24/12:00am 8.9 5.4 7.2 89 0.8 E 15 17 8 9 1024.9 1024.7 0.0
 
Date/Time
WST
Temp
°C
App
Temp
°C
Dew
Point
°C
Rel
Hum
%
Delta-T
°C
Wind Press
QNH
hPa
Press
MSL
hPa
Rain since
9am
mm
Dir  Spd
km/h
Gust
km/h
Spd
kts
Gust
kts
23/11:30pm 9.5 6.0 7.4 87 1.0 E 15 17 8 9 1025.0 1024.8 0.0
23/11:00pm 10.3 6.5 7.7 84 1.3 E 17 19 9 10 1025.0 1024.8 0.0
23/10:30pm 10.9 6.8 7.8 81 1.5 E 19 24 10 13 1024.9 1024.7 0.0
23/10:00pm 11.5 6.8 7.8 78 1.8 E 22 28 12 15 1025.1 1024.9 0.0
23/09:30pm 12.0 7.7 7.9 76 2.0 E 20 26 11 14 1025.3 1025.1 0.0
23/09:00pm 12.4 8.2 8.1 75 2.1 ESE 20 28 11 15 1025.5 1025.3 0.0
23/08:30pm 12.9 8.3 8.0 72 2.4 ESE 22 26 12 14 1025.4 1025.2 0.0
23/08:00pm 13.5 7.9 7.1 65 3.1 ESE 26 33 14 18 1025.3 1025.1 0.0
23/07:30pm 13.7 8.0 5.1 56 4.0 ESE 24 32 13 17 1025.1 1024.9 0.0
23/07:00pm 13.2 8.2 1.2 44 5.1 ESE 17 20 9 11 1025.0 1024.8 0.0
23/06:30pm 14.1 9.1 1.4 42 5.5 ESE 17 22 9 12 1024.9 1024.7 0.0
23/06:00pm 15.1 9.7 1.3 39 6.0 ESE 19 22 10 12 1024.7 1024.5 0.0
23/05:30pm 16.3 10.7 1.2 36 6.7 ESE 20 26 11 14 1024.6 1024.4 0.0
23/05:00pm 17.0 12.0 1.4 35 6.9 ESE 17 20 9 11 1024.3 1024.2 0.0
23/04:30pm 19.1 14.9 1.6 31 8.0 ESE 13 17 7 9 1024.2 1024.1 0.0
23/04:00pm 21.1 16.1 1.4 27 9.1 E 17 26 9 14 1024.3 1024.2 0.0
23/03:30pm 21.9 16.9 1.6 26 9.5 E 17 22 9 12 1024.3 1024.2 0.0
23/03:00pm 22.3 16.9 1.3 25 9.7 E 19 26 10 14 1024.4 1024.3 0.0
23/02:30pm 22.7 17.8 2.2 26 9.7 ENE 17 26 9 14 1024.6 1024.4 0.0
23/02:00pm 22.5 18.8 2.1 26 9.6 NE 11 19 6 10 1024.7 1024.5 0.0
23/01:30pm 21.8 17.7 2.0 27 9.3 NE 13 19 7 10 1024.9 1024.7 0.0
23/01:00pm 22.5 19.1 2.1 26 9.6 ENE 9 13 5 7 1025.0 1024.8 0.0
23/12:30pm 22.7 18.7 2.8 27 9.6 NE 13 19 7 10 1025.3 1025.1 0.0
23/12:00pm 22.3 17.6 2.9 28 9.3 NE 17 24 9 13 1025.9 1025.7 0.0
23/11:30am 21.8 16.8 4.4 32 8.6 NNE 20 28 11 15 1026.5 1026.3 0.0
23/11:00am 21.0 15.6 4.6 34 8.0 NE 22 30 12 16 1027.2 1027.0 0.0
23/10:30am 20.2 14.5 5.1 37 7.4 NNE 24 32 13 17 1027.8 1027.6 0.0
23/10:00am 19.3 13.8 6.1 42 6.6 NE 24 30 13 16 1028.3 1028.2 0.0
23/09:30am 17.7 12.8 6.9 49 5.4 NE 22 30 12 16 1028.6 1028.5 0.0
23/09:00am 15.5 11.2 7.0 57 4.2 NE 19 26 10 14 1028.9 1028.8 0.0
23/08:30am 13.0 8.6 7.2 68 2.8 NE 20 26 11 14 1029.1 1029.0 0.0
23/08:00am 10.8 7.0 7.7 81 1.5 NE 17 19 9 10 1029.3 1029.2 0.0
23/07:30am 8.3 4.4 7.1 92 0.6 ENE 17 22 9 12 1029.1 1029.0 0.0
23/07:00am 6.5 3.5 5.9 96 0.3 E 11 13 6 7 1029.0 1028.9 0.0
23/06:30am 5.2 1.6 4.8 97 0.2 E 13 15 7 8 1028.8 1028.7 0.0
23/06:00am 4.9 0.8 4.5 97 0.2 ENE 15 15 8 8 1028.5 1028.4 0.0
23/05:30am 5.1 1.1 4.7 97 0.2 E 15 17 8 9 1028.2 1028.1 0.0
23/05:00am 5.0 0.9 4.4 96 0.3 ENE 15 15 8 8 1028.0 1027.8 0.0
23/04:30am 5.2 1.5 4.6 96 0.3 ENE 13 15 7 8 1027.8 1027.6 0.0
23/04:00am 5.7 1.7 5.1 96 0.3 ENE 15 15 8 8 1027.7 1027.5 0.0
23/03:30am 6.3 2.8 5.6 95 0.3 ENE 13 15 7 8 1027.8 1027.6 0.0
23/03:00am 6.8 3.4 6.1 95 0.3 ENE 13 15 7 8 1027.9 1027.7 0.0
23/02:30am 7.1 4.2 6.4 95 0.3 ENE 11 13 6 7 1028.0 1027.8 0.0
23/02:00am 7.3 4.0 6.4 94 0.4 E 13 15 7 8 1028.0 1027.8 0.0
23/01:30am 7.8 4.6 6.7 93 0.5 E 13 15 7 8 1028.1 1028.0 0.0
23/01:00am 8.6 4.8 7.5 93 0.5 E 17 19 9 10 1028.2 1028.1 0.0
23/12:30am 9.1 5.4 7.9 92 0.6 E 17 22 9 12 1028.2 1028.1 0.0
23/12:00am 9.3 5.6 7.9 91 0.7 E 17 20 9 11 1028.4 1028.3 0.0
 
Date/Time
WST
Temp
°C
App
Temp
°C
Dew
Point
°C
Rel
Hum
%
Delta-T
°C
Wind Press
QNH
hPa
Press
MSL
hPa
Rain since
9am
mm
Dir  Spd
km/h
Gust
km/h
Spd
kts
Gust
kts
22/11:30pm 9.4 6.0 7.8 90 0.8 E 15 19 8 10 1028.5 1028.4 0.0
22/11:00pm 9.7 6.0 7.8 88 0.9 E 17 19 9 10 1028.6 1028.5 0.0
22/10:30pm 10.2 6.5 8.0 86 1.1 E 17 20 9 11 1028.9 1028.8 0.0
22/10:00pm 10.3 6.5 7.7 84 1.3 E 17 19 9 10 1029.0 1028.9 0.0
22/09:30pm 10.9 7.2 7.8 81 1.5 E 17 19 9 10 1028.9 1028.8 0.0
22/09:00pm 11.4 7.5 7.3 76 2.0 E 17 22 9 12 1028.8 1028.7 0.0
22/08:30pm 11.4 7.0 6.5 72 2.3 E 19 22 10 12 1028.8 1028.7 0.0
22/08:00pm 11.4 7.1 5.1 65 2.9 E 17 20 9 11 1028.8 1028.7 0.0
22/07:30pm 11.1 6.7 2.9 57 3.6 ESE 15 19 8 10 1028.7 1028.6 0.0
22/07:00pm 11.7 6.9 2.5 53 4.0 E 17 19 9 10 1028.5 1028.4 0.0
22/06:30pm 12.8 8.4 2.6 50 4.5 ESE 15 17 8 9 1028.3 1028.2 0.0
22/06:00pm 14.1 9.4 3.0 47 5.0 E 17 19 9 10 1028.0 1027.8 0.0
22/05:30pm 15.6 10.8 2.7 42 5.9 ESE 17 19 9 10 1027.8 1027.6 0.0
22/05:00pm 16.7 11.9 2.7 39 6.4 E 17 19 9 10 1027.8 1027.6 0.0
22/04:30pm 18.9 14.1 2.7 34 7.5 E 17 22 9 12 1027.7 1027.5 0.0
22/04:00pm 20.7 15.4 3.0 31 8.4 E 20 26 11 14 1027.7 1027.5 0.0
22/03:30pm 21.5 16.3 2.7 29 8.9 E 19 26 10 14 1027.7 1027.5 0.0
22/03:00pm 21.7 16.7 3.4 30 8.8 E 19 26 10 14 1027.7 1027.5 0.0
22/02:30pm 22.1 16.9 3.3 29 9.1 E 20 32 11 17 1027.8 1027.6 0.0
22/02:00pm 21.9 16.9 3.6 30 8.8 E 19 28 10 15 1028.0 1027.8 0.0
22/01:30pm 22.1 17.5 3.7 30 9.0 ENE 17 28 9 15 1028.2 1028.1 0.0
22/01:00pm 21.6 17.4 3.8 31 8.6 ENE 15 22 8 12 1028.5 1028.4 0.0
22/12:30pm 21.6 17.9 4.2 32 8.5 NE 13 24 7 13 1028.9 1028.8 0.0
22/12:00pm 21.3 17.6 4.4 33 8.2 ENE 13 24 7 13 1029.5 1029.4 0.0
22/11:30am 21.1 16.8 5.1 35 7.9 NE 17 26 9 14 1030.2 1030.1 0.0
22/11:00am 20.0 15.2 5.6 39 7.1 ENE 20 30 11 16 1030.9 1030.8 0.0
22/10:30am 19.6 15.2 6.7 43 6.5 NE 19 26 10 14 1031.6 1031.4 0.0
22/10:00am 18.1 13.8 6.9 48 5.6 NE 19 26 10 14 1032.0 1031.8 0.0
22/09:30am 17.0 12.9 7.9 55 4.6 NE 19 26 10 14 1032.3 1032.1 0.0
22/09:00am 15.0 10.9 8.5 65 3.3 NE 20 26 11 14 1032.5 1032.3 0.0
22/08:30am 13.2 9.4 8.9 75 2.2 NE 19 26 10 14 1032.6 1032.4 0.0
22/08:00am 11.2 7.7 8.9 86 1.1 ENE 17 24 9 13 1032.6 1032.4 0.0
22/07:30am 9.2 6.3 8.3 94 0.4 ENE 13 17 7 9 1032.5 1032.3 0.0
22/07:00am 7.3 4.4 6.7 96 0.3 NE 11 13 6 7 1032.4 1032.2 0.0
22/06:30am 6.3 3.2 5.7 96 0.3 ENE 11 13 6 7 1032.2 1032.0 0.0
22/06:00am 6.5 3.1 5.9 96 0.3 ENE 13 15 7 8 1031.8 1031.6 0.0
22/05:30am 6.7 3.3 6.1 96 0.3 ENE 13 17 7 9 1031.6 1031.4 0.0
22/05:00am 7.0 3.3 6.4 96 0.3 ENE 15 19 8 10 1031.5 1031.3 0.0
22/04:30am 7.1 3.4 6.5 96 0.3 ENE 15 19 8 10 1031.2 1031.0 0.0
22/04:00am 6.9 3.2 6.3 96 0.3 ENE 15 17 8 9 1031.2 1031.0 0.0
22/03:30am 6.6 3.2 6.0 96 0.3 ENE 13 15 7 8 1031.1 1030.9 0.0
22/03:00am 6.8 3.4 6.1 95 0.3 ENE 13 15 7 8 1031.2 1031.0 0.0
22/02:30am 7.2 3.5 6.5 95 0.3 E 15 15 8 8 1031.3 1031.1 0.0
22/02:00am 6.9 3.5 6.0 94 0.4 E 13 15 7 8 1031.4 1031.2 0.0
22/01:30am 6.7 3.3 5.8 94 0.4 E 13 15 7 8 1031.4 1031.2 0.0
22/01:00am 6.7 3.3 5.7 93 0.4 E 13 13 7 7 1031.6 1031.4 0.0
22/12:30am 7.4 4.5 6.3 93 0.5 E 11 11 6 6 1031.7 1031.5 0.0
22/12:00am 7.5 4.5 6.1 91 0.6 E 11 11 6 6 1031.6 1031.4 0.0
 
Date/Time
WST
Temp
°C
App
Temp
°C
Dew
Point
°C
Rel
Hum
%
Delta-T
°C
Wind Press
QNH
hPa
Press
MSL
hPa
Rain since
9am
mm
Dir  Spd
km/h
Gust
km/h
Spd
kts
Gust
kts
21/11:30pm 8.0 4.7 6.5 90 0.7 E 13 13 7 7 1031.5 1031.3 0.0
21/11:00pm 8.8 5.3 7.1 89 0.8 E 15 17 8 9 1031.6 1031.4 0.0
21/10:30pm 9.3 5.8 7.4 88 0.9 E 15 17 8 9 1031.7 1031.5 0.0
21/10:00pm 9.4 5.9 7.2 86 1.0 ESE 15 17 8 9 1031.9 1031.7 0.0
21/09:30pm 10.0 6.9 7.4 84 1.2 ESE 13 17 7 9 1032.0 1031.8 0.0
21/09:00pm 10.8 7.8 7.9 82 1.4 ESE 13 17 7 9 1031.9 1031.7 0.0
21/08:30pm 11.3 8.0 8.0 80 1.6 ESE 15 17 8 9 1031.8 1031.6 0.0
21/08:00pm 11.7 8.0 7.8 77 1.9 ESE 17 19 9 10 1031.6 1031.4 0.0
21/07:30pm 12.0 8.6 7.5 74 2.2 ESE 15 17 8 9 1031.6 1031.4 0.0
21/07:00pm 13.2 9.5 8.1 71 2.5 ESE 17 19 9 10 1031.5 1031.3 0.0
21/06:30pm 13.4 9.6 7.4 67 3.0 SE 17 20 9 11 1031.1 1030.9 0.0
21/06:00pm 13.7 9.4 5.3 57 3.9 E 17 19 9 10 1030.6 1030.5 0.0
21/05:30pm 15.4 11.2 5.9 53 4.6 E 17 19 9 10 1030.3 1030.2 0.0
21/05:00pm 16.2 12.3 5.5 49 5.1 E 15 17 8 9 1030.2 1030.1 0.0
21/04:30pm 18.2 14.0 5.8 44 6.1 E 17 22 9 12 1030.1 1030.0 0.0
21/04:00pm 19.6 14.1 6.0 41 6.7 ESE 24 30 13 16 1029.9 1029.8 0.0
21/03:30pm 20.1 15.5 5.7 39 7.2 E 19 30 10 16 1029.9 1029.8 0.0
21/03:00pm 20.5 15.9 6.5 40 7.1 ESE 20 30 11 16 1030.0 1029.9 0.0
21/02:30pm 20.3 16.2 6.3 40 7.1 ESE 17 26 9 14 1030.2 1030.1 0.0
21/02:00pm 20.0 15.6 6.7 42 6.7 E 19 28 10 15 1030.3 1030.2 0.0
21/01:30pm 19.7 15.4 6.8 43 6.6 SE 19 30 10 16 1030.4 1030.3 0.0
21/01:00pm 19.5 15.7 7.6 46 6.1 E 17 28 9 15 1030.7 1030.6 0.0
21/12:30pm 19.1 15.7 7.5 47 5.9 ESE 15 22 8 12 1031.3 1031.1 0.0
21/12:00pm 19.1 15.7 7.8 48 5.8 ESE 15 22 8 12 1031.7 1031.5 0.0
21/11:30am 18.5 14.9 8.2 51 5.3 ESE 17 28 9 15 1032.0 1031.8 0.0
21/11:00am 18.8 15.2 8.5 51 5.3 ESE 17 22 9 12 1032.6 1032.4 0.0
21/10:30am 17.9 14.4 8.7 55 4.8 E 17 26 9 14 1033.1 1032.9 0.0
21/10:00am 17.6 13.8 9.0 57 4.5 E 19 26 10 14 1033.4 1033.2 0.0

Other Formats:

Comma delimited format used in spreadsheet applications
http://www.bom.gov.au/fwo/IDW60801/IDW60801.95646.axf

JavaScript Object Notation format (JSON) in row-major order
http://www.bom.gov.au/fwo/IDW60801/IDW60801.95646.json